sensor_id;sensor_type;location;lat;lon;timestamp;P1;durP1;ratioP1;P2;durP2;ratioP2
22357;SDS011;11346;50.150;8.150;2023-06-22T00:01:19;7.17;;;6.00;;
22357;SDS011;11346;50.150;8.150;2023-06-22T00:03:47;8.53;;;6.43;;
22357;SDS011;11346;50.150;8.150;2023-06-22T00:06:14;6.87;;;6.10;;
22357;SDS011;11346;50.150;8.150;2023-06-22T00:08:41;7.40;;;6.00;;
22357;SDS011;11346;50.150;8.150;2023-06-22T00:11:08;10.47;;;6.07;;
22357;SDS011;11346;50.150;8.150;2023-06-22T00:13:35;7.50;;;5.67;;
22357;SDS011;11346;50.150;8.150;2023-06-22T00:16:02;8.53;;;6.03;;
22357;SDS011;11346;50.150;8.150;2023-06-22T00:18:29;8.43;;;6.70;;
22357;SDS011;11346;50.150;8.150;2023-06-22T00:20:58;10.03;;;6.10;;
22357;SDS011;11346;50.150;8.150;2023-06-22T00:23:27;8.63;;;5.90;;
22357;SDS011;11346;50.150;8.150;2023-06-22T00:25:59;7.67;;;6.07;;
22357;SDS011;11346;50.150;8.150;2023-06-22T00:28:26;8.60;;;6.60;;
22357;SDS011;11346;50.150;8.150;2023-06-22T00:30:53;9.20;;;6.43;;
22357;SDS011;11346;50.150;8.150;2023-06-22T00:33:20;12.13;;;6.93;;
22357;SDS011;11346;50.150;8.150;2023-06-22T00:35:48;9.57;;;6.73;;
22357;SDS011;11346;50.150;8.150;2023-06-22T00:38:19;7.80;;;6.37;;
22357;SDS011;11346;50.150;8.150;2023-06-22T00:40:46;12.57;;;7.33;;
22357;SDS011;11346;50.150;8.150;2023-06-22T00:43:13;11.57;;;7.07;;
22357;SDS011;11346;50.150;8.150;2023-06-22T00:45:40;7.70;;;6.77;;
22357;SDS011;11346;50.150;8.150;2023-06-22T00:48:07;10.80;;;7.00;;
22357;SDS011;11346;50.150;8.150;2023-06-22T00:50:34;9.80;;;7.00;;
22357;SDS011;11346;50.150;8.150;2023-06-22T00:53:03;7.80;;;6.10;;
22357;SDS011;11346;50.150;8.150;2023-06-22T00:55:34;12.33;;;7.17;;
22357;SDS011;11346;50.150;8.150;2023-06-22T00:58:03;9.60;;;6.20;;
22357;SDS011;11346;50.150;8.150;2023-06-22T01:00:32;11.30;;;7.57;;
22357;SDS011;11346;50.150;8.150;2023-06-22T01:03:01;11.40;;;7.37;;
22357;SDS011;11346;50.150;8.150;2023-06-22T01:05:28;8.77;;;6.90;;
22357;SDS011;11346;50.150;8.150;2023-06-22T01:07:59;10.40;;;7.53;;
22357;SDS011;11346;50.150;8.150;2023-06-22T01:10:30;10.77;;;7.10;;
22357;SDS011;11346;50.150;8.150;2023-06-22T01:13:01;10.80;;;6.97;;
22357;SDS011;11346;50.150;8.150;2023-06-22T01:15:29;13.00;;;8.40;;
22357;SDS011;11346;50.150;8.150;2023-06-22T01:17:58;11.53;;;7.77;;
22357;SDS011;11346;50.150;8.150;2023-06-22T01:20:26;11.07;;;7.50;;
22357;SDS011;11346;50.150;8.150;2023-06-22T01:23:01;11.67;;;7.57;;
22357;SDS011;11346;50.150;8.150;2023-06-22T01:25:31;9.43;;;7.67;;
22357;SDS011;11346;50.150;8.150;2023-06-22T01:28:03;11.23;;;7.53;;
22357;SDS011;11346;50.150;8.150;2023-06-22T01:30:33;14.70;;;7.93;;
22357;SDS011;11346;50.150;8.150;2023-06-22T01:33:00;12.20;;;8.13;;
22357;SDS011;11346;50.150;8.150;2023-06-22T01:35:28;11.70;;;7.60;;
22357;SDS011;11346;50.150;8.150;2023-06-22T01:37:55;9.40;;;7.93;;
22357;SDS011;11346;50.150;8.150;2023-06-22T01:40:23;12.57;;;7.93;;
22357;SDS011;11346;50.150;8.150;2023-06-22T01:42:50;10.30;;;7.80;;
22357;SDS011;11346;50.150;8.150;2023-06-22T01:45:18;12.37;;;8.63;;
22357;SDS011;11346;50.150;8.150;2023-06-22T01:47:46;10.57;;;8.13;;
22357;SDS011;11346;50.150;8.150;2023-06-22T01:50:13;12.57;;;7.60;;
22357;SDS011;11346;50.150;8.150;2023-06-22T01:52:40;10.50;;;8.07;;
22357;SDS011;11346;50.150;8.150;2023-06-22T01:55:08;12.23;;;7.80;;
22357;SDS011;11346;50.150;8.150;2023-06-22T01:57:35;13.87;;;8.40;;
22357;SDS011;11346;50.150;8.150;2023-06-22T02:00:03;11.90;;;8.03;;
22357;SDS011;11346;50.150;8.150;2023-06-22T02:02:32;9.90;;;7.57;;
22357;SDS011;11346;50.150;8.150;2023-06-22T02:05:02;11.00;;;8.03;;
22357;SDS011;11346;50.150;8.150;2023-06-22T02:07:32;12.83;;;8.37;;
22357;SDS011;11346;50.150;8.150;2023-06-22T02:10:00;13.13;;;8.10;;
22357;SDS011;11346;50.150;8.150;2023-06-22T02:12:28;11.57;;;7.77;;
22357;SDS011;11346;50.150;8.150;2023-06-22T02:14:56;9.67;;;7.93;;
22357;SDS011;11346;50.150;8.150;2023-06-22T02:17:26;12.43;;;8.60;;
22357;SDS011;11346;50.150;8.150;2023-06-22T02:19:53;9.90;;;8.20;;
22357;SDS011;11346;50.150;8.150;2023-06-22T02:22:21;16.50;;;9.10;;
22357;SDS011;11346;50.150;8.150;2023-06-22T02:24:48;10.70;;;8.40;;
22357;SDS011;11346;50.150;8.150;2023-06-22T02:27:15;19.00;;;8.80;;
22357;SDS011;11346;50.150;8.150;2023-06-22T02:29:42;14.37;;;8.60;;
22357;SDS011;11346;50.150;8.150;2023-06-22T02:32:10;12.13;;;8.63;;
22357;SDS011;11346;50.150;8.150;2023-06-22T02:34:36;11.50;;;8.23;;
22357;SDS011;11346;50.150;8.150;2023-06-22T02:37:04;9.40;;;7.93;;
22357;SDS011;11346;50.150;8.150;2023-06-22T02:39:32;13.27;;;7.97;;
22357;SDS011;11346;50.150;8.150;2023-06-22T02:41:59;12.93;;;8.80;;
22357;SDS011;11346;50.150;8.150;2023-06-22T02:44:26;10.57;;;8.70;;
22357;SDS011;11346;50.150;8.150;2023-06-22T02:46:53;12.07;;;8.43;;
22357;SDS011;11346;50.150;8.150;2023-06-22T02:49:20;11.03;;;8.20;;
22357;SDS011;11346;50.150;8.150;2023-06-22T02:51:47;10.37;;;8.83;;
22357;SDS011;11346;50.150;8.150;2023-06-22T02:54:15;12.97;;;8.00;;
22357;SDS011;11346;50.150;8.150;2023-06-22T02:56:43;12.47;;;8.00;;
22357;SDS011;11346;50.150;8.150;2023-06-22T02:59:10;11.00;;;8.60;;
22357;SDS011;11346;50.150;8.150;2023-06-22T03:01:38;12.90;;;7.57;;
22357;SDS011;11346;50.150;8.150;2023-06-22T03:04:06;11.57;;;8.37;;
22357;SDS011;11346;50.150;8.150;2023-06-22T03:06:33;10.83;;;8.60;;
22357;SDS011;11346;50.150;8.150;2023-06-22T03:09:00;12.07;;;8.73;;
22357;SDS011;11346;50.150;8.150;2023-06-22T03:11:29;13.47;;;9.03;;
22357;SDS011;11346;50.150;8.150;2023-06-22T03:13:58;11.43;;;8.80;;
22357;SDS011;11346;50.150;8.150;2023-06-22T03:16:25;12.27;;;8.93;;
22357;SDS011;11346;50.150;8.150;2023-06-22T03:18:52;11.67;;;8.77;;
22357;SDS011;11346;50.150;8.150;2023-06-22T03:21:19;13.23;;;9.47;;
22357;SDS011;11346;50.150;8.150;2023-06-22T03:23:46;12.73;;;9.17;;
22357;SDS011;11346;50.150;8.150;2023-06-22T03:26:16;11.20;;;8.60;;
22357;SDS011;11346;50.150;8.150;2023-06-22T03:28:43;14.03;;;8.80;;
22357;SDS011;11346;50.150;8.150;2023-06-22T03:31:11;10.63;;;8.53;;
22357;SDS011;11346;50.150;8.150;2023-06-22T03:33:38;10.73;;;8.27;;
22357;SDS011;11346;50.150;8.150;2023-06-22T03:36:05;10.93;;;8.93;;
22357;SDS011;11346;50.150;8.150;2023-06-22T03:38:32;13.03;;;8.87;;
22357;SDS011;11346;50.150;8.150;2023-06-22T03:40:59;10.60;;;9.10;;
22357;SDS011;11346;50.150;8.150;2023-06-22T03:43:26;11.57;;;8.93;;
22357;SDS011;11346;50.150;8.150;2023-06-22T03:45:53;12.97;;;9.60;;
22357;SDS011;11346;50.150;8.150;2023-06-22T03:48:22;12.93;;;9.50;;
22357;SDS011;11346;50.150;8.150;2023-06-22T03:50:49;16.67;;;9.63;;
22357;SDS011;11346;50.150;8.150;2023-06-22T03:53:16;10.93;;;9.07;;
22357;SDS011;11346;50.150;8.150;2023-06-22T03:55:48;13.53;;;9.63;;
22357;SDS011;11346;50.150;8.150;2023-06-22T03:58:15;14.97;;;9.20;;
22357;SDS011;11346;50.150;8.150;2023-06-22T04:00:44;12.83;;;9.03;;
22357;SDS011;11346;50.150;8.150;2023-06-22T04:03:11;12.40;;;8.80;;
22357;SDS011;11346;50.150;8.150;2023-06-22T04:05:39;11.80;;;9.13;;
22357;SDS011;11346;50.150;8.150;2023-06-22T04:08:06;12.13;;;8.63;;
22357;SDS011;11346;50.150;8.150;2023-06-22T04:10:33;11.17;;;9.07;;
22357;SDS011;11346;50.150;8.150;2023-06-22T04:13:00;11.83;;;8.80;;
22357;SDS011;11346;50.150;8.150;2023-06-22T04:15:27;12.00;;;9.33;;
22357;SDS011;11346;50.150;8.150;2023-06-22T04:17:55;11.97;;;8.87;;
22357;SDS011;11346;50.150;8.150;2023-06-22T04:20:22;13.23;;;9.50;;
22357;SDS011;11346;50.150;8.150;2023-06-22T04:22:52;11.90;;;9.30;;
22357;SDS011;11346;50.150;8.150;2023-06-22T04:25:19;12.40;;;9.10;;
22357;SDS011;11346;50.150;8.150;2023-06-22T04:27:47;13.70;;;9.10;;
22357;SDS011;11346;50.150;8.150;2023-06-22T04:30:14;12.83;;;9.37;;
22357;SDS011;11346;50.150;8.150;2023-06-22T04:32:42;10.40;;;8.67;;
22357;SDS011;11346;50.150;8.150;2023-06-22T04:35:09;13.00;;;9.63;;
22357;SDS011;11346;50.150;8.150;2023-06-22T04:37:36;15.70;;;9.60;;
22357;SDS011;11346;50.150;8.150;2023-06-22T04:40:06;11.20;;;9.03;;
22357;SDS011;11346;50.150;8.150;2023-06-22T04:42:34;15.53;;;9.87;;
22357;SDS011;11346;50.150;8.150;2023-06-22T04:45:02;10.83;;;9.13;;
22357;SDS011;11346;50.150;8.150;2023-06-22T04:47:29;11.83;;;9.17;;
22357;SDS011;11346;50.150;8.150;2023-06-22T04:49:56;11.70;;;9.83;;
22357;SDS011;11346;50.150;8.150;2023-06-22T04:52:23;12.60;;;8.60;;
22357;SDS011;11346;50.150;8.150;2023-06-22T04:54:50;16.70;;;9.70;;
22357;SDS011;11346;50.150;8.150;2023-06-22T04:57:22;11.13;;;9.53;;
22357;SDS011;11346;50.150;8.150;2023-06-22T04:59:57;15.37;;;9.50;;
22357;SDS011;11346;50.150;8.150;2023-06-22T05:02:39;12.03;;;9.30;;
22357;SDS011;11346;50.150;8.150;2023-06-22T05:05:07;14.00;;;9.57;;
22357;SDS011;11346;50.150;8.150;2023-06-22T05:07:38;17.43;;;9.90;;
22357;SDS011;11346;50.150;8.150;2023-06-22T05:10:08;12.67;;;9.60;;
22357;SDS011;11346;50.150;8.150;2023-06-22T05:12:37;13.30;;;9.27;;
22357;SDS011;11346;50.150;8.150;2023-06-22T05:15:05;10.90;;;9.07;;
22357;SDS011;11346;50.150;8.150;2023-06-22T05:17:32;14.13;;;9.40;;
22357;SDS011;11346;50.150;8.150;2023-06-22T05:19:59;14.27;;;9.47;;
22357;SDS011;11346;50.150;8.150;2023-06-22T05:22:26;14.63;;;9.77;;
22357;SDS011;11346;50.150;8.150;2023-06-22T05:24:53;13.97;;;9.70;;
22357;SDS011;11346;50.150;8.150;2023-06-22T05:27:20;15.50;;;9.63;;
22357;SDS011;11346;50.150;8.150;2023-06-22T05:29:48;10.87;;;9.37;;
22357;SDS011;11346;50.150;8.150;2023-06-22T05:32:15;12.57;;;10.27;;
22357;SDS011;11346;50.150;8.150;2023-06-22T05:34:43;16.77;;;10.07;;
22357;SDS011;11346;50.150;8.150;2023-06-22T05:37:11;14.63;;;10.40;;
22357;SDS011;11346;50.150;8.150;2023-06-22T05:39:38;13.93;;;10.47;;
22357;SDS011;11346;50.150;8.150;2023-06-22T05:42:05;13.40;;;10.20;;
22357;SDS011;11346;50.150;8.150;2023-06-22T05:44:33;12.80;;;11.00;;
22357;SDS011;11346;50.150;8.150;2023-06-22T05:47:01;14.40;;;10.33;;
22357;SDS011;11346;50.150;8.150;2023-06-22T05:49:28;13.63;;;11.00;;
22357;SDS011;11346;50.150;8.150;2023-06-22T05:51:57;14.57;;;10.63;;
22357;SDS011;11346;50.150;8.150;2023-06-22T05:54:24;11.40;;;10.10;;
22357;SDS011;11346;50.150;8.150;2023-06-22T05:56:51;12.50;;;10.60;;
22357;SDS011;11346;50.150;8.150;2023-06-22T05:59:19;12.57;;;10.17;;
22357;SDS011;11346;50.150;8.150;2023-06-22T06:01:46;18.43;;;10.70;;
22357;SDS011;11346;50.150;8.150;2023-06-22T06:04:16;14.63;;;11.00;;
22357;SDS011;11346;50.150;8.150;2023-06-22T06:06:43;14.17;;;10.50;;
22357;SDS011;11346;50.150;8.150;2023-06-22T06:09:12;18.43;;;11.07;;
22357;SDS011;11346;50.150;8.150;2023-06-22T06:11:39;16.50;;;10.83;;
22357;SDS011;11346;50.150;8.150;2023-06-22T06:14:06;17.13;;;10.93;;
22357;SDS011;11346;50.150;8.150;2023-06-22T06:16:33;12.90;;;10.30;;
22357;SDS011;11346;50.150;8.150;2023-06-22T06:19:00;13.00;;;10.00;;
22357;SDS011;11346;50.150;8.150;2023-06-22T06:21:28;18.77;;;10.53;;
22357;SDS011;11346;50.150;8.150;2023-06-22T06:23:55;13.07;;;10.53;;
22357;SDS011;11346;50.150;8.150;2023-06-22T06:26:23;15.07;;;11.10;;
22357;SDS011;11346;50.150;8.150;2023-06-22T06:28:55;17.70;;;10.63;;
22357;SDS011;11346;50.150;8.150;2023-06-22T06:31:22;16.23;;;11.53;;
22357;SDS011;11346;50.150;8.150;2023-06-22T06:33:49;15.73;;;10.70;;
22357;SDS011;11346;50.150;8.150;2023-06-22T06:36:16;17.23;;;10.90;;
22357;SDS011;11346;50.150;8.150;2023-06-22T06:38:45;14.03;;;10.87;;
22357;SDS011;11346;50.150;8.150;2023-06-22T06:41:12;12.57;;;9.90;;
22357;SDS011;11346;50.150;8.150;2023-06-22T06:43:39;14.50;;;10.60;;
22357;SDS011;11346;50.150;8.150;2023-06-22T06:46:07;14.93;;;10.03;;
22357;SDS011;11346;50.150;8.150;2023-06-22T06:48:34;13.13;;;9.23;;
22357;SDS011;11346;50.150;8.150;2023-06-22T06:51:02;17.47;;;10.30;;
22357;SDS011;11346;50.150;8.150;2023-06-22T06:53:29;14.43;;;9.67;;
22357;SDS011;11346;50.150;8.150;2023-06-22T06:55:57;16.17;;;10.00;;
22357;SDS011;11346;50.150;8.150;2023-06-22T06:58:24;10.77;;;9.10;;
22357;SDS011;11346;50.150;8.150;2023-06-22T07:00:51;12.77;;;10.10;;
22357;SDS011;11346;50.150;8.150;2023-06-22T07:03:18;11.70;;;9.60;;
22357;SDS011;11346;50.150;8.150;2023-06-22T07:05:45;13.37;;;10.03;;
22357;SDS011;11346;50.150;8.150;2023-06-22T07:08:12;14.47;;;10.13;;
22357;SDS011;11346;50.150;8.150;2023-06-22T07:10:39;17.43;;;9.77;;
22357;SDS011;11346;50.150;8.150;2023-06-22T07:13:07;11.67;;;9.00;;
22357;SDS011;11346;50.150;8.150;2023-06-22T07:15:34;11.27;;;9.47;;
22357;SDS011;11346;50.150;8.150;2023-06-22T07:18:01;12.40;;;8.80;;
22357;SDS011;11346;50.150;8.150;2023-06-22T07:20:28;13.60;;;8.60;;
22357;SDS011;11346;50.150;8.150;2023-06-22T07:22:55;13.87;;;9.30;;
22357;SDS011;11346;50.150;8.150;2023-06-22T07:25:23;13.70;;;9.33;;
22357;SDS011;11346;50.150;8.150;2023-06-22T07:27:56;12.10;;;9.33;;
22357;SDS011;11346;50.150;8.150;2023-06-22T07:30:25;12.00;;;9.53;;
22357;SDS011;11346;50.150;8.150;2023-06-22T07:32:52;13.67;;;8.90;;
22357;SDS011;11346;50.150;8.150;2023-06-22T07:35:19;11.53;;;9.60;;
22357;SDS011;11346;50.150;8.150;2023-06-22T07:37:46;12.47;;;9.60;;
22357;SDS011;11346;50.150;8.150;2023-06-22T07:40:13;10.17;;;8.53;;
22357;SDS011;11346;50.150;8.150;2023-06-22T07:42:40;12.67;;;9.30;;
22357;SDS011;11346;50.150;8.150;2023-06-22T07:45:07;12.67;;;9.43;;
22357;SDS011;11346;50.150;8.150;2023-06-22T07:47:36;12.17;;;9.13;;
22357;SDS011;11346;50.150;8.150;2023-06-22T07:50:03;12.63;;;8.90;;
22357;SDS011;11346;50.150;8.150;2023-06-22T07:52:30;11.80;;;9.43;;
22357;SDS011;11346;50.150;8.150;2023-06-22T07:54:58;11.83;;;8.90;;
22357;SDS011;11346;50.150;8.150;2023-06-22T07:57:25;12.10;;;9.10;;
22357;SDS011;11346;50.150;8.150;2023-06-22T07:59:58;14.33;;;9.50;;
22357;SDS011;11346;50.150;8.150;2023-06-22T08:02:25;10.07;;;8.83;;
22357;SDS011;11346;50.150;8.150;2023-06-22T08:04:53;12.77;;;9.37;;
22357;SDS011;11346;50.150;8.150;2023-06-22T08:07:20;16.67;;;10.13;;
22357;SDS011;11346;50.150;8.150;2023-06-22T08:09:47;13.33;;;9.40;;
22357;SDS011;11346;50.150;8.150;2023-06-22T08:12:14;12.20;;;8.73;;
22357;SDS011;11346;50.150;8.150;2023-06-22T08:14:42;10.97;;;8.87;;
22357;SDS011;11346;50.150;8.150;2023-06-22T08:17:11;12.33;;;8.67;;
22357;SDS011;11346;50.150;8.150;2023-06-22T08:19:39;11.47;;;8.63;;
22357;SDS011;11346;50.150;8.150;2023-06-22T08:22:07;14.40;;;8.83;;
22357;SDS011;11346;50.150;8.150;2023-06-22T08:24:34;10.70;;;8.50;;
22357;SDS011;11346;50.150;8.150;2023-06-22T08:27:01;9.57;;;8.50;;
22357;SDS011;11346;50.150;8.150;2023-06-22T08:29:28;11.83;;;8.67;;
22357;SDS011;11346;50.150;8.150;2023-06-22T08:31:55;11.23;;;7.63;;
22357;SDS011;11346;50.150;8.150;2023-06-22T08:34:22;10.87;;;8.13;;
22357;SDS011;11346;50.150;8.150;2023-06-22T08:36:50;10.17;;;8.40;;
22357;SDS011;11346;50.150;8.150;2023-06-22T08:39:19;12.53;;;8.53;;
22357;SDS011;11346;50.150;8.150;2023-06-22T08:41:46;12.03;;;9.07;;
22357;SDS011;11346;50.150;8.150;2023-06-22T08:44:13;10.87;;;8.90;;
22357;SDS011;11346;50.150;8.150;2023-06-22T08:46:40;12.23;;;8.33;;
22357;SDS011;11346;50.150;8.150;2023-06-22T08:49:07;12.33;;;8.43;;
22357;SDS011;11346;50.150;8.150;2023-06-22T08:51:35;13.03;;;9.33;;
22357;SDS011;11346;50.150;8.150;2023-06-22T08:54:02;12.43;;;8.93;;
22357;SDS011;11346;50.150;8.150;2023-06-22T08:56:31;12.27;;;8.47;;
22357;SDS011;11346;50.150;8.150;2023-06-22T08:58:58;9.73;;;7.90;;
22357;SDS011;11346;50.150;8.150;2023-06-22T09:01:25;9.27;;;8.10;;
22357;SDS011;11346;50.150;8.150;2023-06-22T09:03:52;9.87;;;8.70;;
22357;SDS011;11346;50.150;8.150;2023-06-22T09:06:23;9.67;;;7.97;;
22357;SDS011;11346;50.150;8.150;2023-06-22T09:08:50;10.07;;;8.50;;
22357;SDS011;11346;50.150;8.150;2023-06-22T09:11:17;12.30;;;8.10;;
22357;SDS011;11346;50.150;8.150;2023-06-22T09:13:46;9.57;;;8.23;;
22357;SDS011;11346;50.150;8.150;2023-06-22T09:16:13;10.10;;;7.97;;
22357;SDS011;11346;50.150;8.150;2023-06-22T09:18:40;9.67;;;7.37;;
22357;SDS011;11346;50.150;8.150;2023-06-22T09:21:07;9.57;;;7.70;;
22357;SDS011;11346;50.150;8.150;2023-06-22T09:23:34;12.77;;;7.57;;
22357;SDS011;11346;50.150;8.150;2023-06-22T09:26:01;11.17;;;8.07;;
22357;SDS011;11346;50.150;8.150;2023-06-22T09:28:29;12.90;;;8.20;;
22357;SDS011;11346;50.150;8.150;2023-06-22T09:30:57;10.53;;;8.00;;
22357;SDS011;11346;50.150;8.150;2023-06-22T09:33:25;21.53;;;8.50;;
22357;SDS011;11346;50.150;8.150;2023-06-22T09:35:51;10.40;;;7.80;;
22357;SDS011;11346;50.150;8.150;2023-06-22T09:38:18;10.37;;;7.80;;
22357;SDS011;11346;50.150;8.150;2023-06-22T09:40:46;16.77;;;8.10;;
22357;SDS011;11346;50.150;8.150;2023-06-22T09:43:13;8.00;;;7.03;;
22357;SDS011;11346;50.150;8.150;2023-06-22T09:45:40;11.40;;;8.50;;
22357;SDS011;11346;50.150;8.150;2023-06-22T09:48:08;12.70;;;8.97;;
22357;SDS011;11346;50.150;8.150;2023-06-22T09:50:35;14.27;;;7.40;;
22357;SDS011;11346;50.150;8.150;2023-06-22T09:53:02;10.90;;;8.43;;
22357;SDS011;11346;50.150;8.150;2023-06-22T09:55:29;10.90;;;5.93;;
22357;SDS011;11346;50.150;8.150;2023-06-22T09:57:56;11.70;;;8.70;;
22357;SDS011;11346;50.150;8.150;2023-06-22T10:00:23;15.03;;;9.23;;
22357;SDS011;11346;50.150;8.150;2023-06-22T10:02:51;17.57;;;9.13;;
22357;SDS011;11346;50.150;8.150;2023-06-22T10:05:20;10.77;;;8.63;;
22357;SDS011;11346;50.150;8.150;2023-06-22T10:07:47;11.97;;;8.93;;
22357;SDS011;11346;50.150;8.150;2023-06-22T10:10:15;11.13;;;8.83;;
22357;SDS011;11346;50.150;8.150;2023-06-22T10:12:42;10.43;;;9.33;;
22357;SDS011;11346;50.150;8.150;2023-06-22T10:15:10;11.73;;;8.27;;
22357;SDS011;11346;50.150;8.150;2023-06-22T10:17:37;12.80;;;9.07;;
22357;SDS011;11346;50.150;8.150;2023-06-22T10:20:04;10.80;;;7.47;;
22357;SDS011;11346;50.150;8.150;2023-06-22T10:22:37;11.90;;;7.60;;
22357;SDS011;11346;50.150;8.150;2023-06-22T10:25:05;12.50;;;9.37;;
22357;SDS011;11346;50.150;8.150;2023-06-22T10:27:32;10.87;;;6.83;;
22357;SDS011;11346;50.150;8.150;2023-06-22T10:29:59;13.07;;;9.10;;
22357;SDS011;11346;50.150;8.150;2023-06-22T10:32:26;12.17;;;9.67;;
22357;SDS011;11346;50.150;8.150;2023-06-22T10:34:54;12.40;;;9.50;;
22357;SDS011;11346;50.150;8.150;2023-06-22T10:37:21;12.83;;;9.20;;
22357;SDS011;11346;50.150;8.150;2023-06-22T10:39:49;12.07;;;9.47;;
22357;SDS011;11346;50.150;8.150;2023-06-22T10:42:16;12.03;;;9.63;;
22357;SDS011;11346;50.150;8.150;2023-06-22T10:44:43;10.80;;;8.67;;
22357;SDS011;11346;50.150;8.150;2023-06-22T10:47:10;11.50;;;9.70;;
22357;SDS011;11346;50.150;8.150;2023-06-22T10:49:37;13.73;;;9.60;;
22357;SDS011;11346;50.150;8.150;2023-06-22T10:52:05;14.07;;;9.97;;
22357;SDS011;11346;50.150;8.150;2023-06-22T10:54:32;13.60;;;8.47;;
22357;SDS011;11346;50.150;8.150;2023-06-22T10:57:01;12.83;;;9.30;;
22357;SDS011;11346;50.150;8.150;2023-06-22T10:59:28;13.80;;;10.03;;
22357;SDS011;11346;50.150;8.150;2023-06-22T11:01:55;13.47;;;8.93;;
22357;SDS011;11346;50.150;8.150;2023-06-22T11:04:22;15.40;;;10.37;;
22357;SDS011;11346;50.150;8.150;2023-06-22T11:06:49;10.97;;;9.83;;
22357;SDS011;11346;50.150;8.150;2023-06-22T11:09:17;14.43;;;9.67;;
22357;SDS011;11346;50.150;8.150;2023-06-22T11:11:46;12.20;;;9.20;;
22357;SDS011;11346;50.150;8.150;2023-06-22T11:14:14;15.40;;;9.53;;
22357;SDS011;11346;50.150;8.150;2023-06-22T11:16:41;11.83;;;9.23;;
22357;SDS011;11346;50.150;8.150;2023-06-22T11:19:08;10.73;;;7.90;;
22357;SDS011;11346;50.150;8.150;2023-06-22T11:21:35;12.70;;;8.23;;
22357;SDS011;11346;50.150;8.150;2023-06-22T11:24:02;10.40;;;7.90;;
22357;SDS011;11346;50.150;8.150;2023-06-22T11:26:29;12.67;;;8.37;;
22357;SDS011;11346;50.150;8.150;2023-06-22T11:28:56;11.93;;;8.40;;
22357;SDS011;11346;50.150;8.150;2023-06-22T11:31:25;11.07;;;7.80;;
22357;SDS011;11346;50.150;8.150;2023-06-22T11:33:52;10.03;;;7.93;;
22357;SDS011;11346;50.150;8.150;2023-06-22T11:36:19;11.63;;;9.03;;
22357;SDS011;11346;50.150;8.150;2023-06-22T11:38:46;11.57;;;8.17;;
22357;SDS011;11346;50.150;8.150;2023-06-22T11:41:13;11.43;;;7.60;;
22357;SDS011;11346;50.150;8.150;2023-06-22T11:43:40;9.87;;;7.70;;
22357;SDS011;11346;50.150;8.150;2023-06-22T11:46:07;11.83;;;7.07;;
22357;SDS011;11346;50.150;8.150;2023-06-22T11:48:35;12.47;;;7.57;;
22357;SDS011;11346;50.150;8.150;2023-06-22T11:51:03;11.20;;;6.90;;
22357;SDS011;11346;50.150;8.150;2023-06-22T11:53:31;13.40;;;7.27;;
22357;SDS011;11346;50.150;8.150;2023-06-22T11:55:59;10.43;;;7.17;;
22357;SDS011;11346;50.150;8.150;2023-06-22T11:58:26;7.87;;;6.87;;
22357;SDS011;11346;50.150;8.150;2023-06-22T12:00:53;18.63;;;7.47;;
22357;SDS011;11346;50.150;8.150;2023-06-22T12:03:20;10.53;;;7.03;;
22357;SDS011;11346;50.150;8.150;2023-06-22T12:05:49;14.40;;;7.00;;
22357;SDS011;11346;50.150;8.150;2023-06-22T12:08:16;8.77;;;6.97;;
22357;SDS011;11346;50.150;8.150;2023-06-22T12:10:43;13.17;;;7.23;;
22357;SDS011;11346;50.150;8.150;2023-06-22T12:13:10;11.20;;;6.50;;
22357;SDS011;11346;50.150;8.150;2023-06-22T12:15:37;10.47;;;6.30;;
22357;SDS011;11346;50.150;8.150;2023-06-22T12:18:04;8.50;;;6.07;;
22357;SDS011;11346;50.150;8.150;2023-06-22T12:20:31;11.33;;;5.83;;
22357;SDS011;11346;50.150;8.150;2023-06-22T12:23:00;9.10;;;6.30;;
22357;SDS011;11346;50.150;8.150;2023-06-22T12:25:27;8.60;;;6.30;;
22357;SDS011;11346;50.150;8.150;2023-06-22T12:27:54;11.00;;;5.93;;
22357;SDS011;11346;50.150;8.150;2023-06-22T12:30:21;13.93;;;5.90;;
22357;SDS011;11346;50.150;8.150;2023-06-22T12:32:48;12.70;;;7.07;;
22357;SDS011;11346;50.150;8.150;2023-06-22T12:35:16;10.67;;;6.33;;
22357;SDS011;11346;50.150;8.150;2023-06-22T12:37:43;8.70;;;6.57;;
22357;SDS011;11346;50.150;8.150;2023-06-22T12:40:12;13.93;;;6.37;;
22357;SDS011;11346;50.150;8.150;2023-06-22T12:42:39;11.50;;;7.10;;
22357;SDS011;11346;50.150;8.150;2023-06-22T12:45:07;14.37;;;6.80;;
22357;SDS011;11346;50.150;8.150;2023-06-22T12:47:34;12.47;;;6.70;;
22357;SDS011;11346;50.150;8.150;2023-06-22T12:50:01;9.37;;;6.30;;
22357;SDS011;11346;50.150;8.150;2023-06-22T12:52:29;12.83;;;6.50;;
22357;SDS011;11346;50.150;8.150;2023-06-22T12:54:57;14.47;;;6.67;;
22357;SDS011;11346;50.150;8.150;2023-06-22T12:57:25;12.90;;;6.47;;
22357;SDS011;11346;50.150;8.150;2023-06-22T12:59:52;12.13;;;6.57;;
22357;SDS011;11346;50.150;8.150;2023-06-22T13:02:19;10.17;;;6.83;;
22357;SDS011;11346;50.150;8.150;2023-06-22T13:04:46;13.10;;;5.90;;
22357;SDS011;11346;50.150;8.150;2023-06-22T13:07:13;13.00;;;7.00;;
22357;SDS011;11346;50.150;8.150;2023-06-22T13:09:40;15.77;;;6.83;;
22357;SDS011;11346;50.150;8.150;2023-06-22T13:12:08;15.40;;;7.27;;
22357;SDS011;11346;50.150;8.150;2023-06-22T13:14:36;13.27;;;6.90;;
22357;SDS011;11346;50.150;8.150;2023-06-22T13:17:04;13.50;;;7.10;;
22357;SDS011;11346;50.150;8.150;2023-06-22T13:19:31;10.77;;;6.63;;
22357;SDS011;11346;50.150;8.150;2023-06-22T13:21:58;13.80;;;6.67;;
22357;SDS011;11346;50.150;8.150;2023-06-22T13:24:25;15.70;;;7.30;;
22357;SDS011;11346;50.150;8.150;2023-06-22T13:26:52;10.43;;;6.87;;
22357;SDS011;11346;50.150;8.150;2023-06-22T13:29:20;12.00;;;6.77;;
22357;SDS011;11346;50.150;8.150;2023-06-22T13:31:48;13.20;;;7.60;;
22357;SDS011;11346;50.150;8.150;2023-06-22T13:34:15;20.13;;;8.00;;
22357;SDS011;11346;50.150;8.150;2023-06-22T13:36:42;11.70;;;7.40;;
22357;SDS011;11346;50.150;8.150;2023-06-22T13:39:09;10.93;;;7.40;;
22357;SDS011;11346;50.150;8.150;2023-06-22T13:41:36;13.07;;;7.77;;
22357;SDS011;11346;50.150;8.150;2023-06-22T13:44:03;19.80;;;7.67;;
22357;SDS011;11346;50.150;8.150;2023-06-22T13:46:30;7.77;;;5.33;;
22357;SDS011;11346;50.150;8.150;2023-06-22T13:48:58;12.67;;;7.57;;
22357;SDS011;11346;50.150;8.150;2023-06-22T13:51:25;14.67;;;7.37;;
22357;SDS011;11346;50.150;8.150;2023-06-22T13:53:53;8.67;;;5.27;;
22357;SDS011;11346;50.150;8.150;2023-06-22T13:56:20;14.07;;;7.83;;
22357;SDS011;11346;50.150;8.150;2023-06-22T13:58:47;12.10;;;8.07;;
22357;SDS011;11346;50.150;8.150;2023-06-22T14:01:14;16.30;;;7.87;;
22357;SDS011;11346;50.150;8.150;2023-06-22T14:03:41;14.73;;;7.27;;
22357;SDS011;11346;50.150;8.150;2023-06-22T14:06:11;17.30;;;7.80;;
22357;SDS011;11346;50.150;8.150;2023-06-22T14:08:38;18.73;;;8.90;;
22357;SDS011;11346;50.150;8.150;2023-06-22T14:11:05;12.63;;;8.70;;
22357;SDS011;11346;50.150;8.150;2023-06-22T14:13:32;14.33;;;8.17;;
22357;SDS011;11346;50.150;8.150;2023-06-22T14:16:00;16.07;;;8.03;;
22357;SDS011;11346;50.150;8.150;2023-06-22T14:18:27;16.40;;;8.13;;
22357;SDS011;11346;50.150;8.150;2023-06-22T14:20:54;13.40;;;4.00;;
22357;SDS011;11346;50.150;8.150;2023-06-22T14:23:22;12.93;;;6.53;;
22357;SDS011;11346;50.150;8.150;2023-06-22T14:25:49;15.50;;;6.67;;
22357;SDS011;11346;50.150;8.150;2023-06-22T14:28:16;12.47;;;6.67;;
22357;SDS011;11346;50.150;8.150;2023-06-22T14:30:44;15.73;;;7.70;;
22357;SDS011;11346;50.150;8.150;2023-06-22T14:33:11;11.93;;;7.13;;
22357;SDS011;11346;50.150;8.150;2023-06-22T14:35:38;14.50;;;7.60;;
22357;SDS011;11346;50.150;8.150;2023-06-22T14:38:05;14.93;;;7.17;;